createdAt,value
2022-12-31T00:00:34.564Z,1.48
2022-12-31T00:03:02.555Z,0.75
2022-12-31T00:05:32.911Z,1.75
2022-12-31T00:08:01.587Z,1.02
2022-12-31T00:10:29.958Z,0.77
2022-12-31T00:12:58.112Z,2.20
2022-12-31T00:15:26.153Z,1.38
2022-12-31T00:17:53.949Z,0.80
2022-12-31T00:20:21.747Z,1.55
2022-12-31T00:22:50.902Z,0.88
2022-12-31T00:25:18.689Z,1.67
2022-12-31T00:27:46.454Z,0.95
2022-12-31T00:30:15.743Z,0.70
2022-12-31T00:32:43.541Z,0.70
2022-12-31T00:35:11.353Z,1.33
2022-12-31T00:37:39.181Z,0.70
2022-12-31T00:40:10.398Z,1.08
2022-12-31T00:42:38.184Z,1.15
2022-12-31T00:45:06.658Z,1.02
2022-12-31T00:47:34.541Z,1.38
2022-12-31T00:50:02.436Z,0.90
2022-12-31T00:52:30.229Z,2.10
2022-12-31T00:54:58.370Z,2.03
2022-12-31T00:57:27.510Z,1.00
2022-12-31T00:59:55.301Z,1.27
2022-12-31T01:02:23.206Z,0.95
2022-12-31T01:04:51.103Z,4.03
2022-12-31T01:07:18.839Z,1.42
2022-12-31T01:09:46.590Z,1.60
2022-12-31T01:12:14.338Z,1.17
2022-12-31T01:14:43.558Z,1.00
2022-12-31T01:17:13.304Z,1.90
2022-12-31T01:19:41.093Z,2.22
2022-12-31T01:22:08.912Z,1.00
2022-12-31T01:24:36.664Z,0.57
2022-12-31T01:27:04.597Z,1.00
2022-12-31T01:29:32.347Z,3.17
2022-12-31T01:32:01.503Z,0.95
2022-12-31T01:34:29.271Z,0.80
2022-12-31T01:36:57.051Z,1.00
2022-12-31T01:39:25.030Z,0.75
2022-12-31T01:41:52.894Z,0.77
2022-12-31T01:44:49.325Z,0.85
2022-12-31T01:47:22.123Z,0.30
2022-12-31T01:49:55.225Z,1.85
2022-12-31T01:52:28.127Z,1.02
2022-12-31T01:55:01.324Z,0.95
2022-12-31T01:57:29.511Z,0.60
2022-12-31T01:59:58.103Z,0.98
2022-12-31T02:02:27.701Z,0.30
2022-12-31T02:04:59.108Z,1.33
2022-12-31T02:07:27.135Z,0.43
2022-12-31T02:09:55.420Z,0.20
2022-12-31T02:12:23.546Z,0.95
2022-12-31T02:14:54.828Z,1.15
2022-12-31T02:17:33.639Z,0.75
2022-12-31T02:20:20.193Z,0.57
2022-12-31T02:23:07.605Z,0.77
2022-12-31T02:25:52.638Z,0.68
2022-12-31T02:28:38.961Z,1.95
2022-12-31T02:31:12.757Z,0.27
2022-12-31T02:33:45.860Z,0.30
2022-12-31T02:36:19.682Z,0.32
2022-12-31T02:38:49.786Z,1.25
2022-12-31T02:41:33.781Z,0.30
2022-12-31T02:44:01.948Z,0.20
2022-12-31T02:46:37.686Z,0.30
2022-12-31T02:49:13.525Z,0.98
2022-12-31T02:51:51.649Z,0.40
2022-12-31T02:54:31.712Z,0.25
2022-12-31T02:57:07.608Z,0.30
2022-12-31T02:59:58.873Z,0.43
2022-12-31T03:02:31.262Z,0.30
2022-12-31T03:05:02.600Z,0.45
2022-12-31T03:07:32.158Z,0.28
2022-12-31T03:10:00.949Z,0.35
2022-12-31T03:12:48.851Z,0.47
2022-12-31T03:15:22.849Z,0.30
2022-12-31T03:17:54.828Z,0.75
2022-12-31T03:20:43.768Z,0.68
2022-12-31T03:23:14.514Z,0.80
2022-12-31T03:25:41.343Z,0.35
2022-12-31T03:28:10.667Z,0.70
2022-12-31T03:30:40.227Z,0.40
2022-12-31T03:33:09.799Z,1.95
2022-12-31T03:35:39.280Z,1.35
2022-12-31T03:38:07.643Z,2.58
2022-12-31T03:40:39.935Z,0.98
2022-12-31T03:43:07.839Z,0.38
2022-12-31T03:45:35.953Z,0.20
2022-12-31T03:48:04.639Z,0.30
2022-12-31T03:50:34.287Z,0.30
2022-12-31T03:53:02.158Z,0.20
2022-12-31T03:55:29.968Z,0.40
2022-12-31T03:57:58.057Z,0.20
2022-12-31T04:00:25.852Z,0.20
2022-12-31T04:02:53.822Z,0.20
2022-12-31T04:05:22.689Z,0.20
2022-12-31T04:07:52.199Z,0.43
2022-12-31T04:10:21.163Z,0.30
2022-12-31T04:12:49.296Z,0.32
2022-12-31T04:15:19.790Z,0.22
2022-12-31T04:17:48.644Z,0.35
2022-12-31T04:20:17.063Z,0.40
2022-12-31T04:22:45.110Z,0.30
2022-12-31T04:25:14.477Z,0.57
2022-12-31T04:27:44.547Z,0.20
2022-12-31T04:30:13.500Z,0.45
2022-12-31T04:32:41.472Z,1.85
2022-12-31T04:35:10.554Z,0.50
2022-12-31T04:37:38.348Z,0.30
2022-12-31T04:40:07.206Z,1.98
2022-12-31T04:42:36.716Z,1.25
2022-12-31T04:45:05.102Z,1.17
2022-12-31T04:47:32.924Z,1.45
2022-12-31T04:50:00.718Z,0.82
2022-12-31T04:52:28.533Z,1.85
2022-12-31T04:54:56.276Z,1.13
2022-12-31T04:57:24.014Z,1.75
2022-12-31T04:59:53.203Z,1.50
2022-12-31T05:02:21.142Z,1.40
2022-12-31T05:04:49.144Z,2.72
2022-12-31T05:07:16.988Z,0.85
2022-12-31T05:09:44.842Z,1.15
2022-12-31T05:12:12.652Z,0.98
2022-12-31T05:14:40.462Z,1.77
2022-12-31T05:17:09.584Z,1.02
2022-12-31T05:19:37.355Z,2.45
2022-12-31T05:22:27.726Z,1.98
2022-12-31T05:24:55.517Z,1.15
2022-12-31T05:27:24.108Z,1.38
2022-12-31T05:29:52.395Z,1.48
2022-12-31T05:32:21.526Z,0.80
2022-12-31T05:34:49.303Z,2.38
2022-12-31T05:37:17.123Z,3.03
2022-12-31T05:39:44.883Z,1.88
2022-12-31T05:42:12.644Z,3.85
2022-12-31T05:44:40.425Z,1.35
2022-12-31T05:47:08.387Z,3.65
2022-12-31T05:49:37.821Z,0.35
2022-12-31T05:52:05.799Z,1.88
2022-12-31T05:54:33.695Z,2.95
2022-12-31T05:57:01.768Z,1.55
2022-12-31T05:59:29.736Z,0.73
2022-12-31T06:01:57.869Z,0.65
2022-12-31T06:04:25.855Z,1.05
2022-12-31T06:06:55.140Z,1.40
2022-12-31T06:09:23.304Z,1.33
2022-12-31T06:11:51.192Z,0.73
2022-12-31T06:14:19.012Z,2.65
2022-12-31T06:16:46.880Z,1.67
2022-12-31T06:19:14.657Z,1.63
2022-12-31T06:21:42.406Z,0.95
2022-12-31T06:24:11.611Z,1.98
2022-12-31T06:26:39.406Z,0.90
2022-12-31T06:29:07.241Z,2.30
2022-12-31T06:31:35.110Z,3.63
2022-12-31T06:34:03.006Z,1.83
2022-12-31T06:36:30.965Z,0.93
2022-12-31T06:38:58.923Z,3.47
2022-12-31T06:41:28.092Z,1.73
2022-12-31T06:43:55.859Z,1.63
2022-12-31T06:46:23.635Z,1.00
2022-12-31T06:48:51.468Z,2.17
2022-12-31T06:51:21.297Z,1.73
2022-12-31T06:53:51.519Z,1.33
2022-12-31T06:56:25.262Z,1.15
2022-12-31T06:58:57.966Z,2.42
2022-12-31T07:01:38.191Z,1.75
2022-12-31T07:04:28.383Z,1.48
2022-12-31T07:07:05.110Z,3.03
2022-12-31T07:12:13.524Z,3.83
2022-12-31T07:14:47.730Z,3.58
2022-12-31T07:17:30.727Z,2.22
2022-12-31T07:20:03.981Z,3.35
2022-12-31T07:22:32.308Z,2.90
2022-12-31T07:25:00.805Z,5.18
2022-12-31T07:27:48.353Z,3.70
2022-12-31T07:30:21.246Z,2.88
2022-12-31T07:33:14.125Z,2.88
2022-12-31T07:35:51.189Z,2.70
2022-12-31T07:38:25.947Z,2.35
2022-12-31T07:41:09.364Z,3.22
2022-12-31T07:43:45.996Z,2.72
2022-12-31T07:46:20.791Z,1.63
2022-12-31T07:48:49.017Z,2.40
2022-12-31T07:51:17.650Z,2.38
2022-12-31T07:53:45.439Z,8.60
2022-12-31T07:56:14.333Z,6.82
2022-12-31T07:58:59.050Z,2.50
2022-12-31T08:01:36.836Z,0.93
2022-12-31T08:04:11.152Z,8.40
2022-12-31T08:06:46.444Z,2.47
2022-12-31T08:09:29.686Z,1.20
2022-12-31T08:11:59.186Z,2.90
2022-12-31T08:14:28.350Z,5.75
2022-12-31T08:16:59.187Z,7.10
2022-12-31T08:19:30.500Z,2.08
2022-12-31T08:22:11.451Z,4.35
2022-12-31T08:24:52.871Z,4.15
2022-12-31T08:27:28.845Z,2.45
2022-12-31T08:30:06.406Z,3.03
2022-12-31T08:32:43.248Z,3.80
2022-12-31T08:35:25.607Z,2.45
2022-12-31T08:38:00.664Z,2.40
2022-12-31T08:40:36.216Z,4.28
2022-12-31T08:43:17.434Z,3.45
2022-12-31T08:45:49.911Z,3.47
2022-12-31T08:48:30.924Z,2.63
2022-12-31T08:50:59.254Z,2.17
2022-12-31T08:53:27.732Z,2.33
2022-12-31T08:56:01.370Z,1.88
2022-12-31T08:58:40.527Z,2.63
2022-12-31T09:01:09.768Z,1.63
2022-12-31T09:04:02.844Z,2.70
2022-12-31T09:06:35.101Z,2.80
2022-12-31T09:09:12.464Z,2.85
2022-12-31T09:11:51.672Z,3.67
2022-12-31T09:14:37.665Z,4.10
2022-12-31T09:17:10.477Z,1.88
2022-12-31T09:19:39.602Z,5.22
2022-12-31T09:22:07.754Z,5.43
2022-12-31T09:24:36.031Z,2.00
2022-12-31T09:27:12.546Z,1.27
2022-12-31T09:29:51.662Z,4.50
2022-12-31T09:32:26.958Z,3.83
2022-12-31T09:35:07.542Z,3.17
2022-12-31T09:37:43.634Z,3.80
2022-12-31T09:40:50.400Z,4.20
2022-12-31T09:43:54.564Z,3.97
2022-12-31T09:47:13.392Z,3.20
2022-12-31T09:50:27.704Z,2.05
2022-12-31T09:53:09.741Z,5.30
2022-12-31T09:55:41.018Z,4.40
2022-12-31T09:58:24.831Z,7.65
2022-12-31T10:00:57.283Z,3.80
2022-12-31T10:03:43.935Z,4.38
2022-12-31T10:06:28.231Z,2.85
2022-12-31T10:09:14.440Z,6.53
2022-12-31T10:12:03.399Z,4.03
2022-12-31T10:14:47.685Z,5.28
2022-12-31T10:17:30.373Z,2.85
2022-12-31T10:20:17.184Z,3.03
2022-12-31T10:23:06.247Z,5.90
2022-12-31T10:25:48.437Z,3.58
2022-12-31T10:28:31.398Z,4.13
2022-12-31T10:31:14.050Z,2.92
2022-12-31T10:33:45.594Z,4.13
2022-12-31T10:36:21.838Z,5.60
2022-12-31T10:39:08.887Z,3.38
2022-12-31T10:42:06.106Z,3.53
2022-12-31T10:45:06.587Z,3.55
2022-12-31T10:48:22.032Z,3.03
2022-12-31T10:51:15.405Z,3.80
2022-12-31T10:54:19.181Z,4.65
2022-12-31T10:57:08.047Z,5.07
2022-12-31T11:00:08.123Z,3.67
2022-12-31T11:03:29.709Z,4.40
2022-12-31T11:06:44.920Z,6.38
2022-12-31T11:09:55.884Z,5.60
2022-12-31T11:12:44.628Z,5.80
2022-12-31T11:15:32.256Z,5.68
2022-12-31T11:18:11.421Z,4.55
2022-12-31T11:20:56.892Z,2.63
2022-12-31T11:23:38.063Z,4.35
2022-12-31T11:26:14.483Z,4.85
2022-12-31T11:28:55.558Z,2.03
2022-12-31T11:31:39.469Z,5.65
2022-12-31T11:34:26.673Z,4.97
2022-12-31T11:39:46.111Z,3.97
2022-12-31T11:42:25.337Z,3.47
2022-12-31T11:45:00.064Z,7.47
2022-12-31T11:48:28.504Z,6.78
2022-12-31T11:50:46.103Z,8.23
2022-12-31T11:53:33.976Z,8.45
2022-12-31T11:56:12.476Z,2.13
2022-12-31T11:58:46.472Z,4.20
2022-12-31T12:01:19.487Z,5.07
2022-12-31T12:03:47.725Z,6.80
2022-12-31T12:06:18.440Z,4.93
2022-12-31T12:08:46.752Z,4.43
2022-12-31T12:11:21.705Z,4.55
2022-12-31T12:13:51.831Z,4.40
2022-12-31T12:16:22.742Z,6.47
2022-12-31T12:18:52.934Z,5.07
2022-12-31T12:21:23.566Z,3.97
2022-12-31T12:23:57.900Z,8.10
2022-12-31T12:26:34.077Z,5.65
2022-12-31T12:29:11.087Z,4.05
2022-12-31T12:31:39.919Z,4.60
2022-12-31T12:34:23.707Z,4.13
2022-12-31T12:36:51.552Z,7.38
2022-12-31T12:39:22.909Z,6.85
2022-12-31T12:42:01.679Z,8.40
2022-12-31T12:44:31.582Z,4.97
2022-12-31T12:47:00.305Z,4.75
2022-12-31T12:49:31.157Z,9.68
2022-12-31T12:52:20.804Z,8.50
2022-12-31T12:55:04.134Z,8.88
2022-12-31T12:57:40.148Z,6.15
2022-12-31T13:00:18.846Z,5.88
2022-12-31T13:03:21.763Z,5.05
2022-12-31T13:06:03.807Z,3.22
2022-12-31T13:08:46.297Z,9.13
2022-12-31T13:11:31.381Z,7.07
2022-12-31T13:14:07.408Z,5.70
2022-12-31T13:16:43.957Z,5.60
2022-12-31T13:19:20.534Z,5.07
2022-12-31T13:21:55.866Z,4.88
2022-12-31T13:24:34.728Z,4.05
2022-12-31T13:27:11.176Z,6.35
2022-12-31T13:29:41.702Z,5.55
2022-12-31T13:32:18.442Z,6.70
2022-12-31T13:37:27.029Z,4.38
2022-12-31T13:40:01.850Z,6.47
2022-12-31T13:42:40.445Z,4.70
2022-12-31T13:45:14.589Z,5.28
2022-12-31T13:47:50.216Z,8.23
2022-12-31T13:50:23.227Z,4.63
2022-12-31T13:52:59.063Z,7.85
2022-12-31T13:55:33.280Z,10.10
2022-12-31T13:58:06.793Z,6.50
2022-12-31T14:00:41.250Z,7.70
2022-12-31T14:03:18.436Z,7.05
2022-12-31T14:05:52.897Z,11.10
2022-12-31T14:08:20.736Z,9.20
2022-12-31T14:11:01.515Z,7.72
2022-12-31T14:13:39.746Z,7.60
2022-12-31T14:16:20.159Z,6.57
2022-12-31T14:19:00.896Z,4.32
2022-12-31T14:21:34.192Z,6.47
2022-12-31T14:24:11.022Z,7.32
2022-12-31T14:26:41.904Z,4.45
2022-12-31T14:29:22.628Z,6.05
2022-12-31T14:32:22.131Z,6.38
2022-12-31T14:35:01.023Z,5.82
2022-12-31T14:37:37.915Z,8.63
2022-12-31T14:40:19.409Z,6.32
2022-12-31T14:42:57.128Z,7.50
2022-12-31T14:45:37.773Z,6.50
2022-12-31T14:48:21.868Z,6.85
2022-12-31T14:50:51.770Z,8.00
2022-12-31T14:53:24.768Z,8.80
2022-12-31T14:56:01.257Z,7.38
2022-12-31T14:58:35.531Z,8.68
2022-12-31T15:01:08.899Z,9.00
2022-12-31T15:03:45.368Z,8.65
2022-12-31T15:06:37.538Z,5.70
2022-12-31T15:09:17.305Z,5.65
2022-12-31T15:12:02.384Z,4.43
2022-12-31T15:15:11.332Z,5.15
2022-12-31T15:17:49.794Z,4.72
2022-12-31T15:20:46.909Z,8.00
2022-12-31T15:23:23.121Z,6.65
2022-12-31T15:25:56.675Z,12.43
2022-12-31T15:28:32.349Z,7.97
2022-12-31T15:31:05.937Z,5.57
2022-12-31T15:33:38.887Z,8.15
2022-12-31T15:36:18.555Z,9.38
2022-12-31T15:38:47.812Z,7.55
2022-12-31T15:41:27.819Z,5.70
2022-12-31T15:43:59.580Z,7.63
2022-12-31T15:46:30.605Z,5.78
2022-12-31T15:49:05.964Z,8.48
2022-12-31T15:51:46.240Z,6.30
2022-12-31T15:54:24.745Z,7.78
2022-12-31T15:56:54.232Z,7.95
2022-12-31T15:59:23.484Z,11.30
2022-12-31T16:01:51.683Z,15.40
2022-12-31T16:04:22.134Z,8.05
2022-12-31T16:06:51.509Z,12.38
2022-12-31T16:09:26.296Z,15.55
2022-12-31T16:11:56.098Z,14.75
2022-12-31T16:14:26.212Z,9.50
2022-12-31T16:16:59.043Z,11.70
2022-12-31T16:19:33.922Z,11.48
2022-12-31T16:22:07.890Z,7.78
2022-12-31T16:24:44.508Z,10.32
2022-12-31T16:27:24.777Z,8.80
2022-12-31T16:30:00.552Z,13.48
2022-12-31T16:32:34.776Z,58.17
2022-12-31T16:35:02.619Z,13.57
2022-12-31T16:37:30.431Z,15.80
2022-12-31T16:40:18.762Z,25.25
2022-12-31T16:42:48.711Z,24.27
2022-12-31T16:45:35.144Z,20.58
2022-12-31T16:48:16.377Z,20.98
2022-12-31T16:50:46.137Z,19.80
2022-12-31T16:53:17.812Z,20.25
2022-12-31T16:55:53.965Z,16.83
2022-12-31T16:58:28.021Z,12.98
2022-12-31T17:01:01.021Z,12.98
2022-12-31T17:03:29.883Z,15.43
2022-12-31T17:06:03.335Z,12.20
2022-12-31T17:08:42.080Z,15.00
2022-12-31T17:11:36.497Z,14.13
2022-12-31T17:14:13.919Z,10.68
2022-12-31T17:17:01.455Z,15.20
2022-12-31T17:19:41.463Z,15.43
2022-12-31T17:22:14.384Z,12.05
2022-12-31T17:24:42.651Z,10.57
2022-12-31T17:27:11.946Z,11.50
2022-12-31T17:29:39.745Z,10.55
2022-12-31T17:32:26.601Z,11.07
2022-12-31T17:34:54.428Z,14.48
2022-12-31T17:37:27.101Z,10.20
2022-12-31T17:40:17.072Z,9.30
2022-12-31T17:42:47.810Z,14.63
2022-12-31T17:45:20.964Z,12.00
2022-12-31T17:47:51.224Z,6.78
2022-12-31T17:50:22.512Z,11.88
2022-12-31T17:52:50.786Z,9.13
2022-12-31T17:55:18.598Z,12.25
2022-12-31T17:57:52.671Z,10.27
2022-12-31T18:00:22.576Z,11.38
2022-12-31T18:02:50.497Z,9.60
2022-12-31T18:05:20.752Z,11.90
2022-12-31T18:07:49.073Z,18.52
2022-12-31T18:10:19.013Z,12.15
2022-12-31T18:12:49.771Z,10.90
2022-12-31T18:15:20.943Z,11.40
2022-12-31T18:17:49.350Z,11.10
2022-12-31T18:20:17.341Z,13.00
2022-12-31T18:22:46.504Z,8.60
2022-12-31T18:25:17.568Z,10.25
2022-12-31T18:27:45.443Z,16.23
2022-12-31T18:30:16.610Z,13.73
2022-12-31T18:32:46.351Z,15.95
2022-12-31T18:35:40.292Z,14.35
2022-12-31T18:38:04.690Z,14.45
2022-12-31T18:40:34.375Z,13.80
2022-12-31T18:43:05.161Z,12.52
2022-12-31T18:45:34.713Z,14.68
2022-12-31T18:48:02.816Z,15.07
2022-12-31T18:50:30.589Z,10.98
2022-12-31T18:52:58.364Z,12.88
2022-12-31T18:55:33.548Z,11.88
2022-12-31T18:58:01.581Z,15.02
2022-12-31T19:00:29.643Z,9.35
2022-12-31T19:02:58.808Z,9.68
2022-12-31T19:05:28.320Z,7.68
2022-12-31T19:07:56.725Z,13.00
2022-12-31T19:10:25.055Z,14.18
2022-12-31T19:12:53.258Z,9.38
2022-12-31T19:15:25.551Z,11.88
2022-12-31T19:17:53.403Z,12.10
2022-12-31T19:20:22.535Z,11.35
2022-12-31T19:22:50.385Z,9.93
2022-12-31T19:25:20.850Z,8.02
2022-12-31T19:27:49.241Z,11.95
2022-12-31T19:30:19.183Z,8.05
2022-12-31T19:32:47.219Z,10.00
2022-12-31T19:35:16.564Z,7.22
2022-12-31T19:37:47.249Z,9.50
2022-12-31T19:40:17.570Z,8.75
2022-12-31T19:42:46.622Z,15.25
2022-12-31T19:45:16.454Z,12.73
2022-12-31T19:47:47.124Z,8.07
2022-12-31T19:50:16.944Z,11.57
2022-12-31T19:52:48.098Z,10.43
2022-12-31T19:55:18.635Z,12.32
2022-12-31T19:57:46.801Z,10.65
2022-12-31T20:00:16.526Z,10.50
2022-12-31T20:02:45.959Z,10.80
2022-12-31T20:05:16.068Z,12.38
2022-12-31T20:07:43.905Z,9.65
2022-12-31T20:10:13.086Z,12.10
2022-12-31T20:12:44.608Z,11.32
2022-12-31T20:15:13.023Z,13.93
2022-12-31T20:17:40.872Z,15.27
2022-12-31T20:20:09.496Z,14.32
2022-12-31T20:22:37.349Z,9.88
2022-12-31T20:25:05.782Z,12.38
2022-12-31T20:27:35.367Z,15.50
2022-12-31T20:30:03.486Z,9.57
2022-12-31T20:32:31.921Z,12.57
2022-12-31T20:34:59.866Z,10.43
2022-12-31T20:37:27.693Z,10.27
2022-12-31T20:39:55.450Z,10.35
2022-12-31T20:42:23.235Z,8.20
2022-12-31T20:44:52.403Z,8.40
2022-12-31T20:47:20.206Z,10.32
2022-12-31T20:52:35.957Z,10.70
2022-12-31T20:55:03.772Z,12.32
2022-12-31T20:57:33.918Z,7.20
2022-12-31T21:00:03.603Z,13.13
2022-12-31T21:02:41.621Z,7.72
2022-12-31T21:05:11.787Z,12.90
2022-12-31T21:07:39.841Z,7.40
2022-12-31T21:10:08.490Z,9.27
2022-12-31T21:12:44.004Z,8.57
2022-12-31T21:15:14.319Z,9.82
2022-12-31T21:17:42.149Z,8.70
2022-12-31T21:20:10.931Z,12.65
2022-12-31T21:22:38.766Z,9.43
2022-12-31T21:25:07.272Z,8.93
2022-12-31T21:27:37.021Z,13.55
2022-12-31T21:30:21.123Z,12.85
2022-12-31T21:32:50.412Z,9.90
2022-12-31T21:38:07.669Z,8.13
2022-12-31T21:40:35.552Z,8.02
2022-12-31T21:43:03.321Z,9.90
2022-12-31T21:45:31.311Z,10.23
2022-12-31T21:48:18.741Z,10.27
2022-12-31T21:50:48.600Z,11.15
2022-12-31T21:53:23.495Z,12.90
2022-12-31T21:56:11.690Z,8.80
2022-12-31T21:58:41.137Z,10.10
2022-12-31T22:01:34.241Z,7.75
2022-12-31T22:04:03.744Z,9.13
2022-12-31T22:06:32.098Z,11.90
2022-12-31T22:08:59.878Z,11.48
2022-12-31T22:11:29.712Z,13.75
2022-12-31T22:13:57.566Z,8.48
2022-12-31T22:16:25.653Z,12.32
2022-12-31T22:18:56.385Z,12.75
2022-12-31T22:21:26.640Z,11.43
2022-12-31T22:23:56.370Z,14.77
2022-12-31T22:26:26.243Z,11.63
2022-12-31T22:28:59.015Z,7.97
2022-12-31T22:31:30.141Z,12.55
2022-12-31T22:33:58.743Z,10.25
2022-12-31T22:36:27.985Z,7.93
2022-12-31T22:38:58.217Z,6.78
2022-12-31T22:41:27.800Z,9.60
2022-12-31T22:44:03.243Z,7.55
2022-12-31T22:46:32.484Z,11.70
2022-12-31T22:49:01.198Z,13.38
2022-12-31T22:51:54.842Z,10.23
2022-12-31T22:54:19.051Z,9.65
2022-12-31T22:56:47.001Z,11.57
2022-12-31T22:59:14.859Z,14.27
2022-12-31T23:01:42.877Z,9.35
2022-12-31T23:04:10.836Z,15.98
2022-12-31T23:06:44.269Z,21.00
2022-12-31T23:09:30.780Z,84.10
2022-12-31T23:11:58.646Z,114.97
2022-12-31T23:14:44.473Z,78.57
2022-12-31T23:17:34.757Z,92.80
2022-12-31T23:20:20.612Z,81.03
2022-12-31T23:23:09.702Z,87.05
2022-12-31T23:25:40.460Z,78.18
2022-12-31T23:28:10.036Z,80.63
2022-12-31T23:30:39.630Z,71.55
2022-12-31T23:33:07.708Z,73.43
2022-12-31T23:35:35.495Z,63.95
2022-12-31T23:38:04.625Z,73.70
2022-12-31T23:40:35.333Z,63.58
2022-12-31T23:43:04.143Z,62.38
2022-12-31T23:45:33.430Z,59.95
2022-12-31T23:48:02.104Z,58.75
2022-12-31T23:50:30.033Z,54.25
2022-12-31T23:52:57.871Z,55.47
2022-12-31T23:55:27.077Z,55.63
2022-12-31T23:57:54.870Z,48.75
